Gunnison, CO (81230)

3:13 AM MDT on July 23, 2016 (GMT -0600)
West Ruby Ave Weather | | Change Station

Elev 7713 ft 38.55 °N, 106.93 °W | Updated 6 seconds ago

Clear
Clear
50.8 °F
Feels Like 50.8 °F
N
0.0
Wind Variable Wind from SW
Gusts 0.0 mph

Today
High -- | Low -- °F
--% Chance of Precip.
Yesterday
High -- | Low -- °F
Precip. -- in
Pressure 30.46 in
Visibility 10.0 miles
Clouds Clear
Dew Point 44 °F
Humidity 78%
Rainfall 0.00 in
Snow Depth Not available.
6:02 AM 8:25 PM
Waning Gibbous, 86% visible
METAR KGUC 230855Z AUTO 00000KT 10SM CLR 11/08 A3046 RMK AO1 57003
Pressure 30.46 in
Visibility 10.0 miles
Clouds Clear
Dew Point 44 °F
Humidity 78%
Rainfall 0.00 in
Snow Depth Not available.
6:02 AM 8:25 PM
Waning Gibbous, 86% visible
METAR KGUC 230855Z AUTO 00000KT 10SM CLR 11/08 A3046 RMK AO1 57003

10-Day Weather Forecast

Almanac

Astronomy

Jul. 23, 2016 Rise Set
Actual Time
Civil Twilight
Nautical Twilight
Astronomical Twilight
Moon
Length of Visible Light
Length of Day
Tomorrow will be .
, % of the Moon is Illuminated

Today's Extremes

State Highs State Lows

Community

WunderPhotos

Upload Photos

1,926,790 photos uploaded!

WunderBlog® & News

Nearby

Air Quality

  Air Quality AQ Index Pollutant
Not available.

Snow Depth

Station Depth Elevation

Earthquake Activity

City Distance Mag. Time & Date
Minimum magnitude displayed is 2.5.

Coastal Water Temperatures

Place Temperature

Stations

Nearby Weather Stations

Station Location Temp. Windchill Dew Point Humidity Wind Precip. Elev Updated Type
                   

Watches & Warnings

There are currently no watches in effect.